El Dorado, Arkansas
Current Conditions -  °F | °C
As of 11:53 AM on Wednesday 26 Nov 2014 (Local Time) from KELD Reporting Station
Clear Clear  
Wind Chill: 60°   Ceiling: Unl
Heat Index: 60°   Visibility: 10mi
Dew Point: 34°   Wind: 15mph
Humidity: 38%   Direction: 240°WSW
Pressure: 30.07"   Gusts: 21mph
Location:  33.21°N, 92.66°W
Report Text: KELD 261753Z AUTO 24013G18KT 10SM CLR 16/01 A3007 RMK AO2 PK WND 23026/1700 SLP182 T01560011 10161 21006 55009
Loading
Personal Weather Stations






























Interactive Weather Map New forecast layout! Learn more

10-Day Weather Forecast

Advertisements
Track Severe Weather on mobile